Time;durP1;ratioP1;P1;durP2;ratioP2;P2;SDS_P1;SDS_P2;PMS_P1;PMS_P2;Temp;Humidity;BMP_temperature;BMP_pressure;BME280_temperature;BME280_humidity;BME280_pressure;Samples;Min_cycle;Max_cycle;Signal;HPM_P1;HPM_P2
2021/08/17 00:01:10;;;;;;;14.25;3.97;;;;;;;12.57;99.23;100135.59;5011804;28;20053;-82
2021/08/17 00:03:37;;;;;;;9.80;3.47;;;;;;;12.51;99.31;100138.69;5023529;28;20076;-82
2021/08/17 00:06:06;;;;;;;11.38;3.50;;;;;;;12.54;99.44;100133.19;4993768;28;20042;-83
2021/08/17 00:08:35;;;;;;;13.95;3.90;;;;;;;12.47;98.83;100142.50;5041714;28;20173;-82
2021/08/17 00:11:06;;;;;;;12.15;4.00;;;;;;;12.46;98.62;100137.34;5039771;28;20120;-81
2021/08/17 00:13:33;;;;;;;18.35;3.58;;;;;;;12.44;98.00;100141.91;5024975;28;20065;-82
2021/08/17 00:16:01;;;;;;;8.80;3.70;;;;;;;12.42;98.96;100144.63;5004247;28;20048;-82
2021/08/17 00:18:28;;;;;;;13.30;4.60;;;;;;;12.37;98.89;100139.69;5026337;28;20046;-82
2021/08/17 00:20:56;;;;;;;9.98;3.90;;;;;;;12.59;98.15;100141.59;5028730;28;20057;-82
2021/08/17 00:23:23;;;;;;;11.40;3.83;;;;;;;12.56;98.16;100143.63;5004375;28;20072;-82
2021/08/17 00:25:51;;;;;;;13.48;4.47;;;;;;;12.61;97.28;100137.06;5031242;28;20176;-82
2021/08/17 00:28:19;;;;;;;15.57;4.15;;;;;;;12.72;95.78;100127.47;5019363;28;20053;-81
2021/08/17 00:30:46;;;;;;;12.10;2.95;;;;;;;12.66;95.97;100132.25;5019550;28;20045;-82
2021/08/17 00:33:13;;;;;;;10.63;3.53;;;;;;;12.69;95.61;100125.88;5012674;28;20049;-81
2021/08/17 00:35:40;;;;;;;9.82;3.15;;;;;;;12.71;96.00;100136.34;5027056;28;20136;-81
2021/08/17 00:38:07;;;;;;;17.10;3.63;;;;;;;12.72;95.23;100122.19;5030842;28;20152;-83
2021/08/17 00:40:35;;;;;;;8.68;3.20;;;;;;;12.79;94.75;100120.75;5020979;28;20041;-81
2021/08/17 00:43:02;;;;;;;12.32;3.45;;;;;;;12.78;93.88;100125.19;5017472;28;20045;-81
2021/08/17 00:45:31;;;;;;;8.70;3.13;;;;;;;12.90;93.90;100116.34;5027954;28;20045;-82
2021/08/17 00:47:58;;;;;;;12.75;3.92;;;;;;;12.88;93.30;100120.06;5021457;28;20473;-81
2021/08/17 00:50:28;;;;;;;8.10;3.42;;;;;;;12.87;92.95;100113.91;5025184;28;20038;-80
2021/08/17 00:52:59;;;;;;;9.35;2.70;;;;;;;12.94;92.96;100116.94;5009766;28;20045;-81
2021/08/17 00:55:27;;;;;;;13.38;3.03;;;;;;;12.96;92.04;100111.53;5028175;28;20056;-82
2021/08/17 00:57:54;;;;;;;15.70;4.50;;;;;;;12.77;92.81;100105.03;5009898;28;20061;-80
2021/08/17 01:00:22;;;;;;;11.38;3.30;;;;;;;12.87;92.41;100111.28;5010869;28;20164;-80
2021/08/17 01:02:50;;;;;;;10.25;3.28;;;;;;;12.82;93.13;100108.16;5023077;28;20176;-80
2021/08/17 01:05:19;;;;;;;10.20;3.13;;;;;;;13.01;91.71;100099.66;5027603;28;20050;-82
2021/08/17 01:07:46;;;;;;;7.03;3.22;;;;;;;13.09;90.83;100102.53;5023384;28;20149;-82
2021/08/17 01:10:14;;;;;;;15.95;3.33;;;;;;;13.07;90.94;100107.13;5009919;28;20133;-80
2021/08/17 01:12:41;;;;;;;12.90;3.38;;;;;;;13.10;91.51;100106.03;5026225;28;20046;-81
2021/08/17 01:15:11;;;;;;;9.25;3.70;;;;;;;13.09;90.85;100102.53;5027378;28;20468;-82
2021/08/17 01:17:38;;;;;;;9.32;2.75;;;;;;;13.12;90.17;100104.97;5024601;28;20112;-81
2021/08/17 01:20:12;;;;;;;7.28;3.30;;;;;;;13.13;90.87;100100.50;5013710;28;20288;-81
2021/08/17 01:22:41;;;;;;;7.55;3.22;;;;;;;13.16;90.58;100092.34;5022364;28;20555;-81
2021/08/17 01:25:09;;;;;;;11.07;3.40;;;;;;;13.36;88.78;100080.22;5024372;28;20423;-81
2021/08/17 01:27:41;;;;;;;15.32;3.58;;;;;;;13.33;88.96;100088.41;5022696;28;20054;-82
2021/08/17 01:30:10;;;;;;;11.60;3.20;;;;;;;13.20;89.77;100085.03;5034673;28;20411;-81
2021/08/17 01:32:46;;;;;;;9.75;3.17;;;;;;;13.13;90.06;100092.56;5014723;28;20465;-81
2021/08/17 01:35:13;;;;;;;10.02;3.42;;;;;;;13.16;90.46;100093.19;5027796;28;20599;-82
2021/08/17 01:37:41;;;;;;;9.43;3.72;;;;;;;13.18;90.02;100095.69;5018598;28;20085;-81
2021/08/17 01:40:10;;;;;;;12.10;3.30;;;;;;;13.29;89.01;100086.97;5023693;28;20419;-81
2021/08/17 01:42:45;;;;;;;11.07;3.85;;;;;;;13.22;89.81;100101.59;5004676;28;20654;-81
2021/08/17 01:45:17;;;;;;;12.27;3.50;;;;;;;12.97;92.20;100107.94;5028388;28;20131;-80
2021/08/17 01:47:52;;;;;;;12.63;3.10;;;;;;;12.86;91.93;100106.13;5019356;28;20392;-81
2021/08/17 01:50:20;;;;;;;11.50;3.55;;;;;;;12.82;92.87;100115.25;5026170;28;20091;-81
2021/08/17 01:52:48;;;;;;;12.57;3.33;;;;;;;13.06;90.88;100104.59;5015552;28;20046;-82
2021/08/17 01:55:15;;;;;;;8.90;3.38;;;;;;;13.08;90.33;100111.44;4991158;28;20083;-83
2021/08/17 01:57:43;;;;;;;10.15;3.60;;;;;;;13.16;90.14;100103.75;5023556;28;20064;-81
2021/08/17 02:00:12;;;;;;;9.70;3.45;;;;;;;13.10;89.43;100112.19;5024900;28;20513;-81
2021/08/17 02:02:40;;;;;;;11.68;2.85;;;;;;;13.18;88.98;100099.19;4990556;28;20041;-82
2021/08/17 02:05:08;;;;;;;9.95;3.03;;;;;;;13.18;89.20;100107.09;5017144;28;20132;-82
2021/08/17 02:07:36;;;;;;;9.77;2.90;;;;;;;13.24;89.30;100102.34;4992384;28;20054;-82
2021/08/17 02:10:04;;;;;;;6.43;2.72;;;;;;;13.28;88.45;100088.75;5048538;28;20064;-83
2021/08/17 02:12:31;;;;;;;8.65;3.17;;;;;;;13.22;88.97;100081.31;5023948;28;20057;-81
2021/08/17 02:14:59;;;;;;;12.07;3.45;;;;;;;13.15;89.25;100086.22;5032325;28;20140;-81
2021/08/17 02:17:26;;;;;;;10.13;3.17;;;;;;;13.15;88.95;100082.75;5023839;28;20058;-82
2021/08/17 02:19:53;;;;;;;9.02;3.08;;;;;;;13.21;88.15;100084.06;5002739;28;20075;-81
2021/08/17 02:22:21;;;;;;;9.07;2.80;;;;;;;13.18;88.60;100091.25;5027169;28;20091;-81
2021/08/17 02:24:49;;;;;;;11.93;3.17;;;;;;;13.31;87.32;100096.44;5027758;28;20077;-81
2021/08/17 02:27:16;;;;;;;9.98;3.00;;;;;;;13.31;87.37;100090.34;5020205;28;20407;-81
2021/08/17 02:29:43;;;;;;;12.60;3.20;;;;;;;13.31;87.59;100093.81;5008935;28;20505;-81
2021/08/17 02:32:10;;;;;;;9.57;2.90;;;;;;;13.36;86.83;100093.44;5022064;28;20038;-81
2021/08/17 02:34:38;;;;;;;8.70;2.75;;;;;;;13.54;85.88;100089.34;5021357;28;20045;-80
2021/08/17 02:37:05;;;;;;;8.32;2.72;;;;;;;13.48;85.94;100089.00;5002163;28;20050;-81
2021/08/17 02:39:32;;;;;;;10.60;2.42;;;;;;;13.39;87.24;100088.75;5024447;28;20096;-82
2021/08/17 02:41:59;;;;;;;7.03;2.50;;;;;;;13.51;86.69;100086.09;5019534;28;20657;-82
2021/08/17 02:44:26;;;;;;;7.75;1.90;;;;;;;13.38;86.69;100071.22;5018739;28;20153;-82
2021/08/17 02:46:54;;;;;;;9.80;2.35;;;;;;;13.48;86.56;100081.91;5003771;28;20109;-83
2021/08/17 02:49:21;;;;;;;10.88;2.90;;;;;;;13.39;87.28;100088.75;5021978;28;20038;-80
2021/08/17 02:51:48;;;;;;;7.20;2.25;;;;;;;13.39;87.12;100088.75;5026917;28;20168;-82
2021/08/17 02:54:15;;;;;;;10.57;2.50;;;;;;;13.43;86.18;100089.38;5020678;28;20137;-81
2021/08/17 02:56:42;;;;;;;11.18;2.45;;;;;;;13.40;86.43;100093.09;5021320;28;20064;-81
2021/08/17 02:59:10;;;;;;;11.38;2.90;;;;;;;13.39;86.49;100088.75;5023362;28;20045;-81
2021/08/17 03:01:37;;;;;;;10.48;2.50;;;;;;;13.42;86.81;100092.97;5021202;28;20187;-81
2021/08/17 03:04:05;;;;;;;7.65;2.58;;;;;;;13.50;86.46;100101.13;5022260;28;20073;-82
2021/08/17 03:06:32;;;;;;;14.82;2.83;;;;;;;13.59;85.92;100099.56;5035681;28;20085;-82
2021/08/17 03:09:00;;;;;;;8.27;2.20;;;;;;;13.70;84.52;100106.66;5014892;28;20037;-82
2021/08/17 03:11:27;;;;;;;10.18;2.30;;;;;;;13.64;84.92;100098.25;5012244;28;20038;-82
2021/08/17 03:13:57;;;;;;;7.95;2.38;;;;;;;13.68;85.16;100093.53;5011566;28;20067;-82
2021/08/17 03:16:25;;;;;;;14.18;3.13;;;;;;;13.77;84.43;100092.78;5048384;28;20053;-82
2021/08/17 03:18:53;;;;;;;7.60;2.20;;;;;;;13.76;85.14;100092.91;5020851;28;20046;-82
2021/08/17 03:21:22;;;;;;;10.68;2.65;;;;;;;13.82;84.63;100095.06;5030151;28;20911;-82
2021/08/17 03:23:50;;;;;;;11.23;3.35;;;;;;;13.61;85.58;100085.25;5030757;28;20140;-81
2021/08/17 03:26:18;;;;;;;8.07;2.75;;;;;;;13.68;85.15;100082.94;4977558;28;20121;-84
2021/08/17 03:28:46;;;;;;;11.10;2.45;;;;;;;13.64;85.17;100084.16;5029352;28;20049;-84
2021/08/17 03:31:13;;;;;;;14.27;2.83;;;;;;;13.47;86.64;100096.09;5040470;28;20047;-82
2021/08/17 03:33:41;;;;;;;13.18;3.30;;;;;;;13.57;86.23;100088.28;5023129;28;20525;-80
2021/08/17 03:36:08;;;;;;;18.55;3.55;;;;;;;13.68;86.10;100088.22;5014683;28;20068;-80
2021/08/17 03:38:35;;;;;;;9.30;2.67;;;;;;;13.63;86.29;100093.91;5025765;28;20053;-82
2021/08/17 03:41:03;;;;;;;11.27;2.83;;;;;;;13.68;86.41;100104.94;5025542;28;20053;-81
2021/08/17 03:43:31;;;;;;;4.47;2.30;;;;;;;13.68;86.32;100102.28;5023535;28;20115;-81
2021/08/17 03:45:59;;;;;;;6.88;2.20;;;;;;;13.80;86.49;100104.94;4982235;28;20053;-81
2021/08/17 03:48:26;;;;;;;8.57;2.88;;;;;;;13.65;86.98;100104.38;5034928;28;20464;-83
2021/08/17 03:50:53;;;;;;;8.70;3.17;;;;;;;13.74;86.26;100092.22;5032566;28;20081;-83
2021/08/17 03:53:21;;;;;;;13.93;2.63;;;;;;;13.79;86.68;100100.63;5026865;28;20076;-82
2021/08/17 03:55:48;;;;;;;10.38;2.47;;;;;;;13.74;86.34;100098.34;5029589;28;20137;-82
2021/08/17 03:58:16;;;;;;;8.10;2.92;;;;;;;13.91;86.14;100104.91;5015826;28;20085;-81
2021/08/17 04:00:43;;;;;;;15.10;4.05;;;;;;;14.00;85.11;100092.72;5035570;28;20117;-80
2021/08/17 04:03:11;;;;;;;4.60;2.40;;;;;;;14.02;84.68;100096.94;5032460;28;20041;-82
2021/08/17 04:05:38;;;;;;;9.75;2.70;;;;;;;14.05;84.95;100109.94;5041497;28;20092;-83
2021/08/17 04:08:07;;;;;;;14.23;3.20;;;;;;;14.11;84.14;100111.22;5034483;28;20053;-82
2021/08/17 04:10:34;;;;;;;6.15;2.83;;;;;;;14.08;84.36;100112.31;5036597;28;20062;-83
2021/08/17 04:13:01;;;;;;;7.85;2.50;;;;;;;14.10;84.83;100117.50;5025585;28;20178;-82
2021/08/17 04:15:28;;;;;;;9.55;2.80;;;;;;;14.09;84.82;100110.50;5039206;28;20453;-83
2021/08/17 04:17:55;;;;;;;9.40;2.90;;;;;;;14.04;84.88;100121.47;5013605;28;20474;-83
2021/08/17 04:20:23;;;;;;;8.93;2.95;;;;;;;14.07;85.07;100126.50;5008474;28;20407;-81
2021/08/17 04:22:50;;;;;;;10.10;3.00;;;;;;;14.14;85.41;100117.13;5031524;28;20132;-87
2021/08/17 04:25:17;;;;;;;14.88;4.93;;;;;;;14.15;84.56;100123.25;5006480;28;20057;-79
2021/08/17 04:27:45;;;;;;;8.43;2.70;;;;;;;14.17;84.67;100127.44;5029963;28;20051;-76
2021/08/17 04:30:12;;;;;;;8.93;2.50;;;;;;;14.30;85.00;100126.44;5030367;28;20049;-79
2021/08/17 04:32:40;;;;;;;8.77;2.70;;;;;;;14.26;84.58;100127.66;5028654;28;20053;-82
2021/08/17 04:35:08;;;;;;;12.20;2.75;;;;;;;14.39;84.15;100136.28;5033045;28;20133;-81
2021/08/17 04:37:35;;;;;;;5.50;2.10;;;;;;;14.43;83.51;100135.06;4997944;28;20079;-82
2021/08/17 04:40:02;;;;;;;9.10;2.53;;;;;;;14.64;83.22;100135.13;5029177;28;20083;-80
2021/08/17 04:42:30;;;;;;;9.73;2.35;;;;;;;14.67;82.60;100142.78;5035702;28;20061;-85
2021/08/17 04:44:57;;;;;;;11.65;3.28;;;;;;;14.54;83.24;100136.84;5041385;28;20084;-86
2021/08/17 04:47:27;;;;;;;12.20;3.13;;;;;;;14.37;84.34;100140.88;5009864;28;20073;-85
2021/08/17 04:49:54;;;;;;;10.15;3.05;;;;;;;14.48;84.28;100134.66;4998786;28;20081;-86
2021/08/17 04:52:25;;;;;;;13.98;2.63;;;;;;;14.36;85.02;100133.88;5027342;28;20076;-85
2021/08/17 04:54:52;;;;;;;10.77;2.90;;;;;;;14.46;84.73;100136.63;5016522;28;20037;-85
2021/08/17 04:57:19;;;;;;;8.70;2.63;;;;;;;14.41;85.01;100135.19;4994461;28;20136;-86
2021/08/17 04:59:46;;;;;;;9.88;2.65;;;;;;;14.52;83.93;100147.56;5028340;28;20115;-79
2021/08/17 05:02:14;;;;;;;7.63;2.63;;;;;;;14.79;83.07;100147.06;5014608;28;20385;-81
2021/08/17 05:04:41;;;;;;;11.88;3.15;;;;;;;14.94;82.80;100152.88;5026006;28;20049;-84
2021/08/17 05:07:09;;;;;;;8.07;2.83;;;;;;;14.85;84.26;100149.19;5035076;28;20109;-87
2021/08/17 05:09:36;;;;;;;13.27;2.83;;;;;;;15.02;82.73;100161.03;5030673;28;20045;-88
2021/08/17 05:12:04;;;;;;;8.50;2.47;;;;;;;14.86;82.98;100163.28;5003795;28;20068;-86
2021/08/17 05:14:31;;;;;;;15.75;3.17;;;;;;;14.79;83.81;100170.06;5055888;28;20141;-86
2021/08/17 05:17:00;;;;;;;10.32;2.70;;;;;;;14.80;83.76;100169.09;5050867;28;20140;-87
2021/08/17 05:19:27;;;;;;;8.70;2.50;;;;;;;14.85;83.46;100175.69;5040576;28;20166;-84
2021/08/17 05:21:54;;;;;;;10.82;2.95;;;;;;;14.91;82.63;100174.34;5015975;28;20053;-89
2021/08/17 05:24:21;;;;;;;10.75;2.85;;;;;;;14.69;84.13;100175.31;5033722;28;20068;-87
2021/08/17 05:26:59;;;;;;;14.90;3.13;;;;;;;14.74;84.08;100172.28;5019373;28;20417;-82
2021/08/17 05:29:26;;;;;;;8.93;3.15;;;;;;;14.83;84.53;100176.81;5046691;28;20065;-87
2021/08/17 05:31:54;;;;;;;14.20;3.13;;;;;;;14.71;84.69;100181.31;5024134;28;20038;-82
2021/08/17 05:34:22;;;;;;;13.63;3.03;;;;;;;14.81;84.69;100184.88;5044864;28;20136;-86
2021/08/17 05:36:49;;;;;;;15.77;3.60;;;;;;;15.01;83.87;100185.84;5028729;28;20620;-90
2021/08/17 05:43:36;;;;;;;10.15;2.63;;;;;;;14.80;85.37;100195.59;5028430;28;20077;-82
2021/08/17 05:46:05;;;;;;;17.25;3.65;;;;;;;15.00;84.70;100196.59;5004762;28;20053;-85
2021/08/17 05:48:39;;;;;;;10.15;2.88;;;;;;;14.95;85.37;100191.69;5004612;28;20049;-83
2021/08/17 05:51:07;;;;;;;12.80;2.75;;;;;;;14.73;86.23;100200.59;5029865;28;20041;-86
2021/08/17 05:53:34;;;;;;;18.60;3.53;;;;;;;14.90;86.42;100204.47;5015994;28;20087;-84
2021/08/17 05:56:02;;;;;;;16.30;3.67;;;;;;;14.87;86.88;100210.03;5026631;28;20453;-84
2021/08/17 05:58:29;;;;;;;16.60;2.97;;;;;;;14.74;87.84;100220.81;5018118;28;20130;-82
2021/08/17 06:00:56;;;;;;;10.35;3.17;;;;;;;14.60;89.30;100224.59;5019930;28;20049;-84
2021/08/17 06:03:43;;;;;;;17.38;3.13;;;;;;;14.78;88.66;100221.41;5026165;28;20124;-84
2021/08/17 06:06:11;;;;;;;12.73;2.70;;;;;;;14.82;89.65;100223.66;5028356;28;20453;-83
2021/08/17 06:08:41;;;;;;;11.43;3.00;;;;;;;14.67;90.37;100219.63;5022563;28;20065;-86
2021/08/17 06:11:08;;;;;;;9.52;3.10;;;;;;;14.68;91.40;100226.63;5048850;28;20064;-88
2021/08/17 06:13:36;;;;;;;10.68;4.03;;;;;;;14.44;92.58;100234.72;5031820;28;20109;-86
2021/08/17 06:16:05;;;;;;;22.45;3.25;;;;;;;14.63;90.51;100234.94;5057293;28;20041;-88
2021/08/17 06:18:33;;;;;;;14.18;4.00;;;;;;;14.65;90.99;100226.88;5038889;28;20042;-87
2021/08/17 06:21:00;;;;;;;14.73;4.97;;;;;;;14.63;91.10;100242.03;5036628;28;20022;-88
2021/08/17 06:23:27;;;;;;;10.00;3.70;;;;;;;14.79;89.78;100231.88;5044246;28;20056;-87
2021/08/17 06:25:55;;;;;;;12.73;3.53;;;;;;;14.87;89.35;100237.38;5041181;28;20506;-85
2021/08/17 06:28:22;;;;;;;14.75;4.60;;;;;;;15.07;88.37;100241.00;5012541;28;20061;-88
2021/08/17 06:30:49;;;;;;;19.30;4.28;;;;;;;15.81;85.73;100251.53;5040205;28;20076;-88
2021/08/17 06:33:17;;;;;;;12.13;3.03;;;;;;;16.57;80.51;100235.94;5030708;28;20536;-87
2021/08/17 06:35:44;;;;;;;13.48;3.28;;;;;;;17.48;75.53;100243.59;4990670;28;20564;-88
2021/08/17 06:38:11;;;;;;;13.75;3.47;;;;;;;17.27;74.62;100249.09;5015480;28;20040;-87
2021/08/17 06:40:39;;;;;;;13.23;3.00;;;;;;;16.50;77.55;100253.41;5024373;28;20062;-86
2021/08/17 06:43:06;;;;;;;17.73;4.18;;;;;;;16.66;77.54;100259.03;5036238;28;20140;-89
2021/08/17 06:45:34;;;;;;;15.02;3.28;;;;;;;16.08;80.14;100256.25;5021516;28;20134;-87
2021/08/17 06:48:02;;;;;;;9.65;3.75;;;;;;;15.78;81.35;100269.53;5022971;28;20044;-87
2021/08/17 06:50:42;;;;;;;16.58;4.43;;;;;;;15.85;82.19;100254.75;5014006;28;20059;-87
2021/08/17 06:53:09;;;;;;;15.32;3.50;;;;;;;15.72;82.71;100267.41;5023563;28;20079;-84
2021/08/17 06:55:39;;;;;;;14.13;3.25;;;;;;;15.70;83.64;100263.06;5037822;28;20045;-84
2021/08/17 06:58:11;;;;;;;12.13;3.70;;;;;;;15.61;84.01;100271.78;4996152;28;20217;-83
2021/08/17 07:00:46;;;;;;;12.55;3.70;;;;;;;15.64;83.41;100273.38;5024093;28;20347;-81
2021/08/17 07:03:14;;;;;;;10.55;2.75;;;;;;;15.74;82.56;100273.41;5019387;28;20127;-82
2021/08/17 07:05:46;;;;;;;14.32;3.47;;;;;;;15.67;82.54;100278.44;5013441;28;20050;-82
2021/08/17 07:08:13;;;;;;;14.13;3.03;;;;;;;15.65;82.57;100267.09;5036912;28;20168;-89
2021/08/17 07:10:41;;;;;;;15.35;3.97;;;;;;;15.64;82.76;100268.91;5022583;28;20077;-83
2021/08/17 07:13:23;;;;;;;16.67;3.85;;;;;;;15.58;82.92;100273.84;5016556;28;20153;-82
2021/08/17 07:15:51;;;;;;;18.05;4.57;;;;;;;15.63;82.51;100272.50;5032416;28;20136;-84
2021/08/17 07:18:18;;;;;;;12.13;3.35;;;;;;;15.78;81.98;100275.69;5023559;28;20128;-81
2021/08/17 07:20:45;;;;;;;14.75;3.40;;;;;;;15.87;80.68;100274.03;5018461;28;20064;-87
2021/08/17 07:23:13;;;;;;;14.38;3.35;;;;;;;15.96;80.40;100283.84;5025433;28;20034;-82
2021/08/17 07:25:41;;;;;;;13.27;3.65;;;;;;;16.17;79.52;100279.34;4979731;28;20048;-80
2021/08/17 07:28:11;;;;;;;13.40;3.65;;;;;;;16.08;79.34;100277.50;5018148;28;20080;-80
2021/08/17 07:30:39;;;;;;;17.33;3.30;;;;;;;16.36;78.21;100286.53;5010336;28;20145;-81
2021/08/17 07:33:07;;;;;;;11.68;3.00;;;;;;;16.60;76.40;100288.81;5004438;28;20099;-80
2021/08/17 07:35:34;;;;;;;16.50;3.28;;;;;;;16.64;75.59;100287.56;5025199;28;20137;-80
2021/08/17 07:38:02;;;;;;;10.75;3.33;;;;;;;16.71;75.30;100301.97;5005063;28;20212;-83
2021/08/17 07:40:31;;;;;;;18.67;3.65;;;;;;;16.66;75.66;100303.34;5019130;28;20080;-81
2021/08/17 07:42:58;;;;;;;11.25;3.03;;;;;;;17.15;73.98;100282.97;5039895;28;20053;-83
2021/08/17 07:45:25;;;;;;;14.68;3.85;;;;;;;16.99;73.45;100282.72;5023565;28;20107;-79
2021/08/17 07:48:13;;;;;;;12.15;3.00;;;;;;;16.52;75.69;100299.25;5006157;28;20050;-80
2021/08/17 07:50:40;;;;;;;17.90;3.45;;;;;;;16.61;75.28;100310.91;5023733;28;20452;-79
2021/08/17 07:53:08;;;;;;;11.98;2.65;;;;;;;16.46;76.17;100292.69;5023722;28;20152;-80
2021/08/17 07:55:40;;;;;;;15.40;2.88;;;;;;;17.04;74.22;100297.28;4999052;28;20107;-79
2021/08/17 07:58:07;;;;;;;11.13;2.75;;;;;;;16.99;73.78;100304.00;5003564;28;20517;-81
2021/08/17 08:00:34;;;;;;;12.93;2.63;;;;;;;16.97;73.75;100309.44;5006517;28;20157;-84
2021/08/17 08:03:02;;;;;;;15.18;3.28;;;;;;;16.61;75.76;100302.94;5007627;28;20037;-83
2021/08/17 08:05:30;;;;;;;9.05;2.70;;;;;;;16.91;75.42;100304.69;5033380;28;20049;-79
2021/08/17 08:07:57;;;;;;;10.80;2.70;;;;;;;17.04;73.73;100309.72;5031776;28;20118;-80
2021/08/17 08:10:24;;;;;;;15.60;2.20;;;;;;;17.15;73.07;100312.25;5024849;28;20128;-83
2021/08/17 08:12:52;;;;;;;12.15;2.63;;;;;;;16.69;77.22;100327.84;5027439;28;20464;-81
2021/08/17 08:15:20;;;;;;;11.93;3.10;;;;;;;16.40;82.44;100329.59;5031174;28;20053;-83
2021/08/17 08:17:47;;;;;;;10.18;3.05;;;;;;;15.60;85.66;100332.94;4995587;28;20060;-83
2021/08/17 08:20:15;;;;;;;9.00;2.50;;;;;;;15.55;87.25;100329.84;5020171;28;20050;-81
2021/08/17 08:22:42;;;;;;;8.65;2.10;;;;;;;15.35;86.25;100347.41;5028100;28;20060;-80
2021/08/17 08:25:10;;;;;;;13.55;2.55;;;;;;;15.45;85.65;100337.75;5020905;28;20045;-84
2021/08/17 08:27:38;;;;;;;8.85;2.67;;;;;;;15.81;83.28;100349.75;5019220;28;20056;-81
2021/08/17 08:30:06;;;;;;;11.02;2.58;;;;;;;16.06;82.17;100348.47;5015093;28;20140;-80
2021/08/17 08:32:35;;;;;;;8.45;2.80;;;;;;;16.33;79.82;100344.38;5009380;28;20062;-80
2021/08/17 08:35:04;;;;;;;10.77;2.55;;;;;;;16.57;77.63;100359.97;4985100;28;20144;-83
2021/08/17 08:37:31;;;;;;;11.55;2.88;;;;;;;16.83;76.03;100358.53;4978031;28;20367;-81
2021/08/17 08:39:58;;;;;;;8.43;2.47;;;;;;;17.05;75.35;100354.78;5042059;28;20068;-83
2021/08/17 08:42:27;;;;;;;11.93;2.70;;;;;;;16.62;77.34;100360.44;5014872;28;20121;-81
2021/08/17 08:44:55;;;;;;;7.03;2.30;;;;;;;16.69;76.81;100362.41;5031001;28;20088;-81
2021/08/17 08:47:22;;;;;;;12.32;2.58;;;;;;;16.37;78.17;100370.53;5023699;28;21133;-81
2021/08/17 08:49:51;;;;;;;8.13;3.05;;;;;;;16.43;77.33;100369.16;5005467;28;20057;-80
2021/08/17 08:52:18;;;;;;;7.55;2.50;;;;;;;16.17;79.15;100366.16;5033429;28;20078;-81
2021/08/17 08:54:45;;;;;;;11.45;2.60;;;;;;;16.36;78.19;100370.69;5038497;28;20088;-80
2021/08/17 08:57:15;;;;;;;12.77;2.97;;;;;;;16.59;77.33;100374.00;5029466;28;20481;-82
2021/08/17 08:59:42;;;;;;;8.18;2.10;;;;;;;16.51;77.07;100379.13;5001455;28;20074;-82
2021/08/17 09:02:11;;;;;;;6.53;2.00;;;;;;;16.42;76.37;100372.81;5019099;28;20072;-81
2021/08/17 09:04:49;;;;;;;9.90;2.60;;;;;;;16.47;75.49;100373.22;5009903;28;20509;-80
2021/08/17 09:07:31;;;;;;;10.63;2.92;;;;;;;16.33;76.23;100363.81;5025216;28;20065;-81
2021/08/17 09:10:00;;;;;;;7.78;2.70;;;;;;;16.59;75.02;100377.47;5047701;28;20132;-81
2021/08/17 09:12:38;;;;;;;8.07;2.95;;;;;;;16.05;77.03;100377.81;5011876;28;20080;-82
2021/08/17 09:15:12;;;;;;;13.55;2.92;;;;;;;16.06;78.53;100375.00;5039329;28;20045;-82
2021/08/17 09:17:40;;;;;;;13.43;3.20;;;;;;;17.04;74.30;100382.38;5001249;28;20088;-81
2021/08/17 09:20:10;;;;;;;14.57;3.13;;;;;;;17.72;71.51;100363.75;5031974;28;20148;-83
2021/08/17 09:22:38;;;;;;;11.48;2.83;;;;;;;18.04;69.27;100366.06;5030513;28;20457;-80
2021/08/17 09:25:06;;;;;;;9.50;2.92;;;;;;;17.59;71.17;100377.34;5034356;28;20128;-81
2021/08/17 09:27:35;;;;;;;10.45;2.97;;;;;;;16.67;74.75;100384.78;5030259;28;20062;-79
2021/08/17 09:30:12;;;;;;;10.13;2.83;;;;;;;17.15;74.14;100381.41;5045012;28;20080;-82
2021/08/17 09:32:53;;;;;;;14.70;3.47;;;;;;;17.03;74.81;100387.84;5022288;28;20061;-81
2021/08/17 09:35:22;;;;;;;13.65;2.70;;;;;;;16.96;74.30;100379.56;5032367;28;20096;-80
2021/08/17 09:38:15;;;;;;;7.97;2.53;;;;;;;17.27;72.06;100372.31;4988876;28;20063;-82
2021/08/17 09:40:42;;;;;;;12.35;2.80;;;;;;;17.63;70.37;100373.41;5032441;28;20045;-80
2021/08/17 09:43:21;;;;;;;13.07;2.95;;;;;;;17.90;69.10;100371.88;5022758;28;20445;-80
2021/08/17 09:45:49;;;;;;;9.45;2.40;;;;;;;17.94;68.61;100375.94;5027826;28;20057;-80
2021/08/17 09:48:31;;;;;;;14.23;3.05;;;;;;;17.18;71.47;100374.00;5006041;28;20064;-81
2021/08/17 09:50:58;;;;;;;15.23;3.55;;;;;;;17.02;71.78;100381.69;5034961;28;20053;-80
2021/08/17 09:53:28;;;;;;;16.17;3.10;;;;;;;16.86;72.85;100384.88;5009975;28;20112;-80
2021/08/17 09:55:57;;;;;;;13.70;3.20;;;;;;;16.63;73.65;100389.53;5018866;28;20562;-84
2021/08/17 09:58:31;;;;;;;17.83;3.88;;;;;;;16.48;74.29;100380.25;5008646;28;20564;-81
2021/08/17 10:01:03;;;;;;;10.88;3.72;;;;;;;16.27;75.27;100390.09;5012152;28;20281;-82
2021/08/17 10:03:32;;;;;;;17.70;4.10;;;;;;;16.29;75.00;100385.47;5024439;28;20137;-83
2021/08/17 10:06:00;;;;;;;11.55;3.47;;;;;;;16.23;75.22;100380.69;5013988;28;20069;-83
2021/08/17 10:08:30;;;;;;;11.30;2.65;;;;;;;16.77;73.18;100391.00;5013471;28;20037;-81
2021/08/17 10:10:58;;;;;;;14.90;2.92;;;;;;;16.99;72.05;100386.44;5021695;28;20406;-81
2021/08/17 10:13:31;;;;;;;15.98;2.92;;;;;;;16.99;71.40;100389.94;5024895;28;20095;-82
2021/08/17 10:16:01;;;;;;;15.00;3.83;;;;;;;17.04;71.45;100379.72;5025083;28;20102;-79
2021/08/17 10:18:30;;;;;;;18.92;4.20;;;;;;;16.74;72.61;100390.41;5027044;28;20505;-80
2021/08/17 10:21:02;;;;;;;19.35;3.63;;;;;;;17.64;69.25;100380.41;5015361;28;20061;-80
2021/08/17 10:23:31;;;;;;;14.32;3.30;;;;;;;18.11;66.40;100375.19;5019319;28;20474;-82
2021/08/17 10:26:02;;;;;;;11.70;2.60;;;;;;;18.04;65.79;100381.22;5024399;28;20112;-82
2021/08/17 10:28:38;;;;;;;17.58;3.00;;;;;;;18.30;64.51;100373.44;5027203;28;20139;-81
2021/08/17 10:31:11;;;;;;;14.98;3.15;;;;;;;18.52;63.51;100375.72;5011632;28;20073;-84
2021/08/17 10:33:50;;;;;;;16.60;4.03;;;;;;;18.51;63.68;100371.38;5024527;28;20655;-81
2021/08/17 10:36:32;;;;;;;11.80;2.67;;;;;;;19.02;62.27;100382.50;5021673;28;20041;-85
2021/08/17 10:39:06;;;;;;;9.80;2.72;;;;;;;19.28;61.49;100374.59;4995443;28;20132;-82
2021/08/17 10:41:36;;;;;;;20.88;3.70;;;;;;;18.54;62.02;100384.41;5027990;28;20388;-81
2021/08/17 10:44:07;;;;;;;10.32;3.30;;;;;;;18.45;62.06;100375.44;5014363;28;20047;-80
2021/08/17 10:47:03;;;;;;;13.70;2.83;;;;;;;18.20;62.49;100376.97;5023531;28;20060;-81
2021/08/17 10:49:38;;;;;;;8.82;2.40;;;;;;;18.14;62.27;100377.53;5029175;28;20049;-80
2021/08/17 10:52:07;;;;;;;10.98;2.30;;;;;;;18.08;62.61;100369.28;5027548;28;20523;-82
2021/08/17 10:54:36;;;;;;;13.98;2.75;;;;;;;18.19;62.32;100391.28;5035570;28;20058;-81
2021/08/17 10:57:20;;;;;;;8.85;2.50;;;;;;;17.40;65.60;100396.00;5015831;28;20060;-84
2021/08/17 10:59:50;;;;;;;14.05;2.50;;;;;;;17.10;67.69;100403.09;5010430;28;20180;-81
2021/08/17 11:02:22;;;;;;;14.65;3.67;;;;;;;16.68;70.75;100418.34;5019092;28;20111;-82
2021/08/17 11:04:51;;;;;;;13.70;2.92;;;;;;;17.21;68.13;100420.78;5014293;28;20152;-80
2021/08/17 11:07:25;;;;;;;11.60;2.95;;;;;;;17.71;66.47;100402.00;5002264;28;20089;-80
2021/08/17 11:09:55;;;;;;;9.73;2.70;;;;;;;17.49;66.34;100405.78;5003115;28;20151;-82
2021/08/17 11:12:31;;;;;;;9.30;3.17;;;;;;;17.94;62.95;100407.88;4987496;28;20056;-82
2021/08/17 11:15:00;;;;;;;10.50;2.60;;;;;;;17.91;62.81;100413.50;5016513;28;20054;-79
2021/08/17 11:17:28;;;;;;;11.05;2.58;;;;;;;17.42;64.14;100418.81;5025569;28;20049;-79
2021/08/17 11:19:56;;;;;;;13.75;2.60;;;;;;;17.18;65.26;100408.56;5028822;28;20059;-81
2021/08/17 11:22:33;;;;;;;14.88;2.50;;;;;;;16.81;68.74;100448.25;5006852;28;20085;-80
2021/08/17 11:25:06;;;;;;;13.38;3.10;;;;;;;16.28;74.24;100444.88;5035416;28;20077;-81
2021/08/17 11:27:40;;;;;;;11.52;2.90;;;;;;;16.11;78.19;100455.13;5030408;28;20084;-81
2021/08/17 11:30:11;;;;;;;9.30;2.70;;;;;;;15.99;80.71;100456.19;5037637;28;20068;-79
2021/08/17 11:32:48;;;;;;;11.35;3.08;;;;;;;15.59;83.01;100448.84;5017365;28;20115;-80